Time;durP1;ratioP1;P1;durP2;ratioP2;P2;SDS_P1;SDS_P2;PMS_P1;PMS_P2;Temp;Humidity;BMP_temperature;BMP_pressure;BME280_temperature;BME280_humidity;BME280_pressure;Samples;Min_cycle;Max_cycle;Signal;HPM_P1;HPM_P2
2022/09/09 00:01:37;;;;;;;2.28;0.82;;;;;;;15.80;70.89;95922.34;10377241;28;96962;-58
2022/09/09 00:06:50;;;;;;;1.98;0.77;;;;;;;15.82;71.22;95912.44;10378565;28;98088;-58
2022/09/09 00:11:58;;;;;;;1.67;0.60;;;;;;;15.62;71.95;95921.97;10375712;28;98585;-58
2022/09/09 00:17:05;;;;;;;1.85;0.70;;;;;;;15.53;72.31;95928.31;10377832;28;96896;-58
2022/09/09 00:22:17;;;;;;;1.60;0.65;;;;;;;15.37;73.25;95930.16;10378083;28;96656;-59
2022/09/09 00:27:28;;;;;;;3.80;0.70;;;;;;;15.28;72.93;95920.75;10376683;28;97118;-58
2022/09/09 00:32:35;;;;;;;2.10;0.65;;;;;;;15.38;71.38;95913.38;10377792;28;96641;-58
2022/09/09 00:37:40;;;;;;;2.13;0.60;;;;;;;15.49;71.30;95927.88;10378410;28;96927;-58
2022/09/09 00:42:45;;;;;;;2.65;0.90;;;;;;;15.42;71.56;95932.25;10376205;28;97391;-58
2022/09/09 00:47:51;;;;;;;3.75;0.70;;;;;;;15.31;72.36;95931.72;10377331;28;96628;-58
2022/09/09 00:53:06;;;;;;;0.90;0.60;;;;;;;15.16;72.94;95916.97;10376125;28;97148;-58
2022/09/09 00:58:09;;;;;;;;;;;;;;;15.17;72.06;95931.78;10376850;28;96679;-58
2022/09/09 01:03:30;;;;;;;2.92;0.93;;;;;;;15.07;73.14;95913.63;10376514;28;96714;-59
2022/09/09 01:09:11;;;;;;;1.85;0.82;;;;;;;14.94;73.54;95915.09;10372186;28;96788;-58
2022/09/09 01:14:25;;;;;;;3.13;0.93;;;;;;;14.91;73.69;95915.47;10375699;28;96972;-59
2022/09/09 01:19:40;;;;;;;1.17;0.85;;;;;;;14.98;73.97;95917.38;10376264;28;96627;-58
2022/09/09 01:25:20;;;;;;;2.13;0.57;;;;;;;14.94;73.82;95917.72;10375919;28;96697;-57
2022/09/09 01:30:24;;;;;;;1.42;0.70;;;;;;;14.96;74.06;95922.81;10375507;28;97727;-58
2022/09/09 01:35:39;;;;;;;1.35;0.60;;;;;;;14.91;74.14;95930.44;10375643;28;96690;-58
2022/09/09 01:40:42;;;;;;;1.98;0.80;;;;;;;14.80;74.63;95938.75;10348200;28;96994;-58
2022/09/09 01:45:50;;;;;;;2.60;0.70;;;;;;;14.67;75.03;95945.47;10333106;28;96718;-58
2022/09/09 01:50:53;;;;;;;2.50;0.93;;;;;;;14.61;75.61;95940.13;10334295;28;96862;-58
2022/09/09 01:56:38;;;;;;;2.75;0.93;;;;;;;14.54;75.59;95938.22;10333461;28;97204;-58
2022/09/09 02:01:57;;;;;;;1.63;0.75;;;;;;;14.42;75.64;95936.19;10346721;28;97128;-58
2022/09/09 02:07:01;;;;;;;1.45;0.60;;;;;;;14.30;75.66;95939.25;10378235;28;96969;-58
2022/09/09 02:12:11;;;;;;;2.30;0.90;;;;;;;14.26;76.43;95948.47;10380471;28;97703;-59
2022/09/09 02:17:22;;;;;;;2.00;0.93;;;;;;;14.27;76.13;95944.84;10374515;28;96786;-58
2022/09/09 02:22:27;;;;;;;2.50;0.88;;;;;;;14.16;77.02;95938.22;10374827;28;96770;-58
2022/09/09 02:27:30;;;;;;;;;;;;;;;14.10;76.28;95936.28;10374252;28;96606;-58
2022/09/09 02:32:36;;;;;;;2.47;0.90;;;;;;;14.00;77.21;95936.53;10353768;28;97527;-57
2022/09/09 02:37:41;;;;;;;3.58;1.08;;;;;;;13.91;76.60;95945.44;10331070;28;96694;-58
2022/09/09 02:42:46;;;;;;;2.63;1.15;;;;;;;13.86;77.25;95934.66;10332631;28;96813;-57
2022/09/09 02:47:59;;;;;;;3.65;1.27;;;;;;;13.94;77.06;95944.31;10332943;28;96649;-58
2022/09/09 02:53:09;;;;;;;2.75;0.90;;;;;;;14.02;76.81;95935.53;10339378;28;96778;-58
2022/09/09 02:58:16;;;;;;;2.50;1.13;;;;;;;14.04;76.64;95934.38;10339373;28;96758;-58
2022/09/09 03:03:21;;;;;;;4.10;1.00;;;;;;;13.93;76.70;95938.25;10364793;28;96769;-58
2022/09/09 03:08:24;;;;;;;1.45;1.02;;;;;;;13.87;77.34;95931.06;10379903;28;96835;-58
2022/09/09 03:13:27;;;;;;;3.58;1.10;;;;;;;13.85;77.95;95929.63;10380486;28;96873;-59
2022/09/09 03:18:32;;;;;;;2.95;1.00;;;;;;;13.76;77.97;95936.72;10380218;28;96615;-58
2022/09/09 03:23:34;;;;;;;3.77;1.20;;;;;;;13.66;77.56;95933.50;10379745;28;97265;-58
2022/09/09 03:28:37;;;;;;;3.42;1.10;;;;;;;13.56;78.54;95936.34;10378513;28;97422;-58
2022/09/09 03:33:42;;;;;;;4.07;1.30;;;;;;;13.55;77.73;95946.03;10358495;28;98647;-58
2022/09/09 03:38:44;;;;;;;2.88;1.15;;;;;;;13.61;78.41;95939.28;10337680;28;96678;-58
2022/09/09 03:43:47;;;;;;;4.00;1.17;;;;;;;13.63;78.70;95935.47;10337908;28;96687;-59
2022/09/09 03:48:53;;;;;;;4.05;1.08;;;;;;;13.61;78.40;95945.34;10379520;28;96812;-58
2022/09/09 03:53:56;;;;;;;3.25;1.33;;;;;;;13.59;78.19;95933.38;10420197;27;96793;-58
2022/09/09 03:58:59;;;;;;;3.92;1.40;;;;;;;13.52;78.88;95921.97;10420041;27;96813;-58
2022/09/09 04:04:03;;;;;;;3.50;1.45;;;;;;;13.51;78.95;95917.69;10386952;28;97244;-58
2022/09/09 04:09:06;;;;;;;4.40;1.97;;;;;;;13.42;79.06;95922.16;10375183;28;96929;-59
2022/09/09 04:14:09;;;;;;;5.53;1.40;;;;;;;13.36;79.45;95921.06;10407985;28;96944;-58
2022/09/09 04:19:14;;;;;;;3.40;1.60;;;;;;;13.29;79.28;95922.75;10418546;28;96631;-58
2022/09/09 04:24:17;;;;;;;4.95;1.45;;;;;;;13.22;79.07;95935.72;10389227;28;97342;-58
2022/09/09 04:29:19;;;;;;;2.95;1.52;;;;;;;13.18;79.93;95923.13;10377682;28;96769;-58
2022/09/09 04:34:24;;;;;;;3.83;1.60;;;;;;;13.16;80.25;95925.09;10377204;28;96780;-58
2022/09/09 04:39:27;;;;;;;;;;;;;;;13.11;79.83;95928.22;10378367;28;96680;-57
2022/09/09 04:44:30;;;;;;;4.07;1.60;;;;;;;13.04;80.25;95924.66;10377800;28;96632;-58
2022/09/09 04:49:34;;;;;;;3.47;1.70;;;;;;;13.04;80.92;95932.53;10375002;28;97458;-58
2022/09/09 04:54:37;;;;;;;4.07;1.80;;;;;;;13.09;80.03;95930.22;10378002;28;97632;-58
2022/09/09 04:59:40;;;;;;;3.15;1.55;;;;;;;13.08;80.08;95928.56;10376901;28;97246;-58
2022/09/09 05:04:44;;;;;;;2.22;1.70;;;;;;;13.04;80.73;95929.91;10376469;28;97147;-58
2022/09/09 05:09:49;;;;;;;2.20;1.53;;;;;;;12.96;79.98;95924.69;10388407;28;96819;-58
2022/09/09 05:14:51;;;;;;;4.45;2.08;;;;;;;12.81;80.39;95922.75;10417665;27;96671;-58
2022/09/09 05:19:56;;;;;;;3.47;1.73;;;;;;;12.67;81.51;95931.31;10382776;28;96878;-58
2022/09/09 05:25:00;;;;;;;5.50;1.92;;;;;;;12.61;81.36;95924.97;10376276;28;96887;-58
2022/09/09 05:30:04;;;;;;;5.07;2.40;;;;;;;12.66;81.50;95925.25;10378991;28;96732;-58
2022/09/09 05:35:09;;;;;;;3.92;1.73;;;;;;;12.62;81.22;95933.63;10414591;28;96801;-58
2022/09/09 05:40:12;;;;;;;6.20;1.67;;;;;;;12.71;81.41;95932.59;10375700;28;96635;-58
2022/09/09 05:45:15;;;;;;;4.20;1.95;;;;;;;12.80;81.31;95941.25;10376276;28;96891;-58
2022/09/09 05:50:19;;;;;;;3.53;1.50;;;;;;;12.81;82.04;95928.00;10375111;28;97100;-58
2022/09/09 05:55:22;;;;;;;6.40;1.63;;;;;;;12.84;81.59;95946.00;10375113;28;97216;-58
2022/09/09 06:00:24;;;;;;;3.72;1.40;;;;;;;12.92;81.51;95949.63;10398242;28;96641;-58
2022/09/09 06:05:29;;;;;;;2.05;1.40;;;;;;;13.08;81.11;95948.72;10407513;28;96773;-58
2022/09/09 06:10:32;;;;;;;2.97;1.60;;;;;;;13.26;81.00;95964.25;10374745;28;96712;-58
2022/09/09 06:15:35;;;;;;;3.70;1.40;;;;;;;13.42;80.50;95972.03;10373484;28;96667;-58
2022/09/09 06:20:39;;;;;;;4.82;1.60;;;;;;;13.60;79.78;95969.97;10374412;28;96941;-58
2022/09/09 06:25:42;;;;;;;3.27;1.23;;;;;;;13.78;79.81;95971.50;10373375;28;96741;-57
2022/09/09 06:30:45;;;;;;;4.47;1.42;;;;;;;13.98;78.45;95969.22;10364217;28;96756;-58
2022/09/09 06:35:54;;;;;;;2.63;1.08;;;;;;;14.17;77.03;95963.47;10378420;28;96722;-58
2022/09/09 06:40:58;;;;;;;2.10;1.23;;;;;;;14.44;76.38;95969.19;10385924;28;96844;-58
2022/09/09 06:46:02;;;;;;;2.73;1.00;;;;;;;14.67;75.27;95966.50;10414598;28;97087;-57
2022/09/09 06:51:08;;;;;;;1.20;0.90;;;;;;;15.05;71.80;95969.06;10414116;28;96779;-58
2022/09/09 06:56:22;;;;;;;1.35;0.70;;;;;;;15.41;69.02;95975.34;10415099;28;97335;-58
2022/09/09 07:01:27;;;;;;;1.95;0.85;;;;;;;15.60;67.15;95974.00;10415282;28;96605;-57
2022/09/09 07:06:34;;;;;;;3.78;1.20;;;;;;;15.78;68.15;95963.88;10399568;28;96927;-58
2022/09/09 07:11:41;;;;;;;2.72;0.90;;;;;;;15.83;69.72;95982.56;10372654;28;96790;-58
2022/09/09 07:16:45;;;;;;;2.17;0.70;;;;;;;15.99;66.34;95981.50;10372603;28;96713;-58
2022/09/09 07:21:50;;;;;;;1.10;0.70;;;;;;;16.21;64.30;95992.88;10372794;28;96583;-58
2022/09/09 07:26:52;;;;;;;;;;;;;;;16.41;65.09;95995.66;10373610;28;97719;-57
2022/09/09 07:31:55;;;;;;;2.42;0.90;;;;;;;16.43;62.80;95987.56;10372357;28;96818;-58
2022/09/09 07:36:59;;;;;;;3.35;0.80;;;;;;;16.49;62.05;95997.34;10359176;28;97151;-58
2022/09/09 07:42:02;;;;;;;2.97;0.90;;;;;;;16.59;61.63;96000.47;10337013;28;97057;-58
2022/09/09 07:47:05;;;;;;;1.75;0.55;;;;;;;16.73;60.73;96003.22;10338162;28;96731;-58
2022/09/09 07:52:10;;;;;;;1.48;0.70;;;;;;;16.76;60.28;96008.13;10337962;28;97183;-58
2022/09/09 07:57:16;;;;;;;2.58;0.85;;;;;;;16.78;61.26;96004.31;10337431;28;97950;-58
2022/09/09 08:02:21;;;;;;;3.47;0.70;;;;;;;16.79;61.10;96015.66;10337839;28;97033;-59
2022/09/09 08:07:26;;;;;;;3.03;0.70;;;;;;;16.85;60.89;96012.28;10360383;28;97025;-59
2022/09/09 08:12:28;;;;;;;3.05;1.00;;;;;;;16.90;60.20;96015.16;10377971;28;96687;-58
2022/09/09 08:17:32;;;;;;;2.38;0.70;;;;;;;17.04;58.27;96013.41;10379379;28;96701;-58
2022/09/09 08:22:37;;;;;;;2.45;0.70;;;;;;;17.03;59.27;96008.31;10378196;28;96751;-58
2022/09/09 08:27:40;;;;;;;2.65;0.63;;;;;;;16.83;59.49;96014.25;10377888;28;96687;-58
2022/09/09 08:32:43;;;;;;;3.38;1.05;;;;;;;16.83;59.30;96021.38;10376929;28;97158;-58
2022/09/09 08:37:49;;;;;;;2.80;0.88;;;;;;;16.98;58.99;96027.38;10350542;28;96709;-58
2022/09/09 08:42:54;;;;;;;2.42;0.55;;;;;;;17.08;57.48;96032.31;10336207;28;97519;-58
2022/09/09 08:48:09;;;;;;;1.80;0.60;;;;;;;17.24;55.83;96037.25;10335383;28;96928;-58
2022/09/09 08:53:17;;;;;;;2.28;0.80;;;;;;;17.51;55.44;96038.22;10336275;28;96638;-58
2022/09/09 08:58:22;;;;;;;2.35;0.90;;;;;;;17.57;55.60;96042.72;10335535;28;96844;-58
2022/09/09 09:03:34;;;;;;;4.75;0.88;;;;;;;17.70;53.92;96052.53;10335713;28;96720;-58
2022/09/09 09:08:45;;;;;;;1.60;0.70;;;;;;;17.57;53.99;96045.34;10371186;28;96990;-57
2022/09/09 09:13:53;;;;;;;2.90;0.85;;;;;;;17.81;53.72;96053.00;10376274;28;96662;-57
2022/09/09 09:18:57;;;;;;;4.10;0.80;;;;;;;18.01;52.81;96063.66;10376431;28;96683;-58
2022/09/09 09:24:02;;;;;;;1.73;0.60;;;;;;;18.04;52.17;96050.03;10375011;28;96897;-58
2022/09/09 09:29:12;;;;;;;3.63;0.63;;;;;;;18.13;52.02;96052.31;10376071;28;96713;-58
2022/09/09 09:34:17;;;;;;;2.15;0.63;;;;;;;18.42;52.17;96060.09;10375947;28;96770;-58
2022/09/09 09:39:26;;;;;;;1.73;0.77;;;;;;;18.57;50.86;96062.53;10334366;28;96825;-58
2022/09/09 09:44:49;;;;;;;2.40;1.00;;;;;;;18.71;51.37;96066.84;10333883;28;96792;-58
2022/09/09 09:49:53;;;;;;;2.63;0.70;;;;;;;18.31;51.40;96075.53;10334049;28;96814;-58
2022/09/09 09:54:59;;;;;;;3.17;0.90;;;;;;;18.27;52.54;96071.66;10333623;28;97317;-58
2022/09/09 10:00:16;;;;;;;2.65;0.70;;;;;;;18.22;50.69;96087.31;10334768;28;96745;-58
2022/09/09 10:05:21;;;;;;;5.18;0.95;;;;;;;18.19;50.90;96071.03;10343394;28;96877;-59
2022/09/09 10:10:41;;;;;;;4.13;0.90;;;;;;;18.30;50.86;96073.09;10374362;28;96729;-58
2022/09/09 10:16:00;;;;;;;4.90;0.80;;;;;;;18.31;51.75;96075.53;10373432;28;96731;-58
2022/09/09 10:21:20;;;;;;;2.35;0.60;;;;;;;18.29;52.10;96063.50;10374575;28;96739;-58
2022/09/09 10:26:39;;;;;;;2.58;0.60;;;;;;;18.41;50.73;96069.84;10374484;28;97169;-58
2022/09/09 10:31:53;;;;;;;3.55;1.10;;;;;;;18.35;50.17;96053.97;10374295;28;96747;-58
2022/09/09 10:36:56;;;;;;;3.47;1.07;;;;;;;18.70;49.21;96062.53;10349437;28;96751;-57
2022/09/09 10:42:07;;;;;;;2.53;0.90;;;;;;;19.19;48.47;96056.06;10332734;28;97000;-58
2022/09/09 10:47:50;;;;;;;2.65;0.80;;;;;;;19.45;47.79;96059.63;10332153;28;96733;-59
2022/09/09 10:53:03;;;;;;;1.42;0.50;;;;;;;19.75;46.35;96051.22;10246335;28;96788;-58
2022/09/09 10:58:13;;;;;;;3.97;0.85;;;;;;;19.54;48.29;96039.88;10246258;28;96954;-58
2022/09/09 11:03:20;;;;;;;3.15;0.63;;;;;;;19.17;47.51;96046.66;10245584;28;96849;-58
2022/09/09 11:08:26;;;;;;;6.07;1.02;;;;;;;19.20;46.96;96049.72;10280774;28;96974;-58
2022/09/09 11:13:38;;;;;;;0.85;0.38;;;;;;;19.52;48.76;96047.22;10293138;28;96765;-58
2022/09/09 11:18:45;;;;;;;2.15;0.57;;;;;;;19.93;46.75;96032.78;10293027;28;97186;-58
2022/09/09 11:23:52;;;;;;;4.60;0.77;;;;;;;20.14;45.87;96038.81;10292729;28;96867;-58
2022/09/09 11:29:23;;;;;;;1.67;0.40;;;;;;;20.06;45.38;96041.69;10347899;28;97236;-59
2022/09/09 11:34:50;;;;;;;2.85;0.60;;;;;;;20.28;45.67;96048.31;10371878;28;96940;-58
2022/09/09 11:40:18;;;;;;;2.38;0.73;;;;;;;20.53;45.43;96040.41;10338258;28;96739;-58
2022/09/09 11:45:27;;;;;;;1.67;0.50;;;;;;;20.74;45.86;96041.09;10338920;28;97030;-57
2022/09/09 11:50:36;;;;;;;1.20;0.40;;;;;;;20.86;45.45;96049.16;10337465;28;96795;-58
2022/09/09 11:55:39;;;;;;;0.98;0.50;;;;;;;20.91;44.82;96051.97;10337777;28;96669;-58
2022/09/09 12:00:45;;;;;;;1.65;0.35;;;;;;;20.72;44.17;96057.19;10336425;28;97081;-58
2022/09/09 12:05:48;;;;;;;2.47;0.65;;;;;;;20.47;44.56;96065.13;10353138;28;97399;-58
2022/09/09 12:10:56;;;;;;;2.17;0.77;;;;;;;20.56;44.22;96070.97;10377984;28;96900;-59
2022/09/09 12:16:02;;;;;;;3.80;1.30;;;;;;;20.71;44.85;96068.84;10378514;28;97254;-58
2022/09/09 12:21:15;;;;;;;3.72;1.05;;;;;;;20.68;45.12;96068.47;10376443;28;97005;-58
2022/09/09 12:26:29;;;;;;;4.43;0.82;;;;;;;20.48;45.67;96068.63;10378352;28;97037;-58
2022/09/09 12:31:40;;;;;;;1.52;0.57;;;;;;;20.13;47.09;96061.03;10377733;28;96726;-58
2022/09/09 12:36:55;;;;;;;3.50;1.02;;;;;;;19.98;47.95;96062.13;10351260;28;96718;-58
2022/09/09 12:41:58;;;;;;;3.33;0.80;;;;;;;19.72;49.75;96064.88;10336309;28;97074;-58
2022/09/09 12:47:04;;;;;;;2.22;0.60;;;;;;;19.74;49.55;96053.03;10336142;28;97001;-58
2022/09/09 12:52:14;;;;;;;1.48;0.60;;;;;;;19.79;48.87;96049.75;10334962;28;96756;-58
2022/09/09 12:57:17;;;;;;;2.33;0.70;;;;;;;19.75;49.61;96040.59;10335819;28;96892;-58
2022/09/09 13:02:24;;;;;;;1.63;0.63;;;;;;;19.92;47.98;96033.84;10335039;28;96815;-58
2022/09/09 13:07:27;;;;;;;1.52;0.80;;;;;;;20.16;47.23;96028.78;10366846;28;96811;-58
2022/09/09 13:12:30;;;;;;;3.50;0.70;;;;;;;20.41;46.45;96025.38;10371483;28;96724;-59
2022/09/09 13:17:35;;;;;;;3.05;0.77;;;;;;;20.33;46.64;96024.59;10334626;28;97269;-58
2022/09/09 13:22:40;;;;;;;3.60;0.75;;;;;;;20.37;48.04;96017.84;10334749;28;96789;-58
2022/09/09 13:27:53;;;;;;;3.15;0.60;;;;;;;20.32;47.93;96022.16;10335422;28;97821;-58
2022/09/09 13:33:22;;;;;;;2.50;0.95;;;;;;;20.42;45.42;96016.38;10333952;28;96791;-58
2022/09/09 13:38:25;;;;;;;2.33;0.60;;;;;;;20.83;46.21;96007.13;10334236;28;97000;-58
2022/09/09 13:43:31;;;;;;;3.05;0.70;;;;;;;21.17;45.74;96002.28;10333243;28;96818;-60
2022/09/09 13:48:36;;;;;;;1.55;0.60;;;;;;;21.48;44.07;96004.81;10337742;28;97836;-58
2022/09/09 13:53:38;;;;;;;;;;;;;;;21.74;45.15;95997.56;10375718;28;96769;-58
2022/09/09 13:58:41;;;;;;;1.45;0.50;;;;;;;21.55;44.42;95993.28;10375471;28;97635;-59
2022/09/09 14:03:45;;;;;;;2.60;0.77;;;;;;;21.55;44.70;95996.75;10371281;28;97124;-58
2022/09/09 14:08:50;;;;;;;2.00;0.65;;;;;;;21.22;45.00;95989.16;10340424;28;96845;-58
2022/09/09 14:13:52;;;;;;;2.78;0.80;;;;;;;21.21;45.81;96003.50;10374408;28;96726;-59
2022/09/09 14:18:57;;;;;;;1.35;0.70;;;;;;;21.33;44.53;96007.03;10375306;28;96740;-58
2022/09/09 14:23:59;;;;;;;;;;;;;;;20.93;45.80;96010.91;10374693;28;96814;-58
2022/09/09 14:29:02;;;;;;;1.83;0.80;;;;;;;20.58;46.55;96026.47;10374248;28;96766;-58
2022/09/09 14:34:07;;;;;;;1.35;0.60;;;;;;;20.54;46.54;96017.31;10364502;28;96649;-58
2022/09/09 14:39:10;;;;;;;2.70;0.50;;;;;;;20.98;45.66;96010.25;10333126;28;96651;-59
2022/09/09 14:44:13;;;;;;;2.60;0.77;;;;;;;21.42;45.24;96016.31;10331123;28;96705;-59
2022/09/09 14:49:17;;;;;;;2.40;0.80;;;;;;;21.60;45.03;96017.34;10332202;28;97167;-58
2022/09/09 14:54:21;;;;;;;;;;;;;;;22.05;44.74;96009.84;10332529;28;97098;-58
2022/09/09 14:59:23;;;;;;;2.20;0.80;;;;;;;22.80;44.40;96010.38;10331975;28;97022;-58
2022/09/09 15:04:28;;;;;;;3.85;1.00;;;;;;;23.42;41.68;96006.47;10342806;28;96666;-58
2022/09/09 15:09:30;;;;;;;;;;;;;;;23.59;42.20;96004.69;10374289;28;96757;-58
2022/09/09 15:14:33;;;;;;;1.98;0.60;;;;;;;23.77;40.48;96014.38;10372664;28;96802;-58
2022/09/09 15:19:38;;;;;;;1.57;0.80;;;;;;;23.99;40.54;96005.72;10373030;28;96823;-58
2022/09/09 15:24:41;;;;;;;2.97;0.60;;;;;;;24.25;39.45;96012.38;10371904;28;96743;-59
2022/09/09 15:29:44;;;;;;;1.85;0.40;;;;;;;23.98;38.68;96004.09;10372301;28;96892;-58
2022/09/09 15:34:51;;;;;;;2.20;0.50;;;;;;;23.83;38.23;96009.94;10355837;28;96652;-58
2022/09/09 15:39:54;;;;;;;2.40;0.47;;;;;;;23.64;38.63;96001.31;10330820;28;96800;-58
2022/09/09 15:44:56;;;;;;;2.50;0.70;;;;;;;23.59;37.68;95988.69;10330806;28;96951;-58
2022/09/09 15:50:00;;;;;;;2.38;0.70;;;;;;;23.58;37.87;96003.06;10331097;28;96677;-58
2022/09/09 15:55:03;;;;;;;;;;;;;;;23.47;38.80;95998.56;10332028;28;96759;-62
2022/09/09 16:00:06;;;;;;;;;;;;;;;23.23;39.65;95997.78;10339180;28;96875;-59
2022/09/09 16:05:10;;;;;;;;;;;;;;;23.63;39.55;95989.81;10357140;28;96752;-58
2022/09/09 16:10:13;;;;;;;;;;;;;;;24.33;38.88;95985.25;10378918;28;96974;-58
2022/09/09 16:15:16;;;;;;;;;;;;;;;24.49;39.16;95981.81;10377519;28;97094;-58
2022/09/09 16:20:20;;;;;;;;;;;;;;;23.79;40.25;95982.94;10378575;28;97200;-58
2022/09/09 16:25:22;;;;;;;;;;;;;;;23.14;40.92;95994.66;10377463;28;96824;-58
2022/09/09 16:30:25;;;;;;;;;;;;;;;23.50;40.89;95982.91;10378553;28;96908;-58
2022/09/09 16:35:29;;;;;;;;;;;;;;;23.14;41.55;95978.66;10377766;28;96761;-58
2022/09/09 16:40:34;;;;;;;;;;;;;;;22.35;42.31;95978.94;10405174;28;96763;-58
2022/09/09 16:45:42;;;;;;;;;;;;;;;22.08;42.73;95992.63;10344329;28;97040;-58
2022/09/09 16:50:45;;;;;;;;;;;;;;;21.95;42.98;95990.16;10397634;27;96743;-58
2022/09/09 16:55:48;;;;;;;;;;;;;;;21.83;43.32;95990.94;10370176;28;97296;-59
2022/09/09 17:00:51;;;;;;;;;;;;;;;21.58;43.83;95987.53;10336236;28;96843;-59
2022/09/09 17:05:54;;;;;;;;;;;;;;;21.29;44.14;95984.59;10414151;28;97269;-59
2022/09/09 17:10:57;;;;;;;;;;;;;;;21.12;44.26;95985.19;10402399;28;98331;-58
2022/09/09 17:16:04;;;;;;;;;;;;;;;20.84;44.71;95992.81;10383329;28;96842;-58
2022/09/09 17:21:12;;;;;;;;;;;;;;;20.56;44.93;95994.03;10382330;28;96807;-58
2022/09/09 17:26:16;;;;;;;;;;;;;;;20.22;45.37;95984.69;10394586;28;96960;-59
2022/09/09 17:31:19;;;;;;;;;;;;;;;20.04;45.53;95986.22;10345536;28;97069;-58
2022/09/09 17:36:24;;;;;;;;;;;;;;;19.94;45.91;95983.22;10373551;28;97178;-59
2022/09/09 17:41:29;;;;;;;;;;;;;;;19.73;45.96;95992.28;10357557;28;97707;-59
2022/09/09 17:46:33;;;;;;;;;;;;;;;19.56;46.18;95991.97;10354884;28;97653;-59
2022/09/09 17:51:38;;;;;;;;;;;;;;;19.40;46.56;96012.59;10373865;28;97208;-58
2022/09/09 17:56:41;;;;;;;;;;;;;;;19.20;46.73;96036.47;10365997;28;97832;-59
2022/09/09 18:01:45;;;;;;;;;;;;;;;18.68;48.26;96062.75;10372150;28;96905;-59
2022/09/09 18:06:50;;;;;;;;;;;;;;;17.03;53.09;96053.19;10370219;28;97284;-58
2022/09/09 18:11:53;;;;;;;;;;;;;;;16.09;56.00;96054.97;10367266;28;98704;-58
2022/09/09 18:16:56;;;;;;;;;;;;;;;15.83;56.00;96080.03;10353149;28;96813;-57
2022/09/09 18:22:01;;;;;;;;;;;;;;;15.82;55.69;96091.53;10377301;28;96837;-59
2022/09/09 18:27:04;;;;;;;;;;;;;;;15.68;56.88;96095.81;10366618;28;98609;-58
2022/09/09 18:32:07;;;;;;;;;;;;;;;15.43;57.84;96121.59;10365775;28;97061;-58
2022/09/09 18:37:11;;;;;;;;;;;;;;;15.39;57.46;96125.59;10372699;28;99109;-59
2022/09/09 18:42:13;;;;;;;;;;;;;;;15.40;57.43;96140.38;10387825;28;96806;-58
2022/09/09 18:47:16;;;;;;;;;;;;;;;15.50;57.12;96145.41;10371570;27;96816;-58
2022/09/09 18:52:20;;;;;;;;;;;;;;;15.44;58.03;96154.84;10375628;28;98408;-58
2022/09/09 18:57:23;;;;;;;;;;;;;;;15.39;58.58;96159.81;10333195;28;97170;-58
2022/09/09 19:02:25;;;;;;;;;;;;;;;15.44;58.52;96167.16;10354635;28;96907;-58
2022/09/09 19:07:29;;;;;;;;;;;;;;;15.53;58.22;96166.09;10411279;28;96807;-58
2022/09/09 19:12:32;;;;;;;;;;;;;;;15.60;57.87;96174.94;10377000;27;97251;-58
2022/09/09 19:17:35;;;;;;;;;;;;;;;15.64;57.62;96173.56;10373833;28;96714;-58
2022/09/09 19:22:39;;;;;;;;;;;;;;;15.76;57.51;96166.03;10374146;28;97160;-58
2022/09/09 19:27:42;;;;;;;;;;;;;;;15.84;57.74;96163.31;10371046;28;97223;-58
2022/09/09 19:32:45;;;;;;;;;;;;;;;15.81;57.49;96176.84;10377913;28;96979;-58
2022/09/09 19:37:57;;;;;;;;;;;;;;;15.78;58.24;96182.47;10391104;28;96945;-58
2022/09/09 19:43:00;;;;;;;;;;;;;;;15.76;58.40;96186.31;10421960;28;96761;-58
2022/09/09 19:48:02;;;;;;;;;;;;;;;15.69;58.62;96196.75;10421195;28;96779;-58
2022/09/09 19:53:06;;;;;;;;;;;;;;;15.66;58.89;96205.81;10408340;28;96784;-58
2022/09/09 19:58:09;;;;;;;;;;;;;;;15.65;58.99;96214.72;10362285;28;96864;-58
2022/09/09 20:03:11;;;;;;;;;;;;;;;15.62;59.28;96206.34;10363597;28;96737;-58
2022/09/09 20:08:22;;;;;;;;;;;;;;;15.58;59.44;96218.19;10379823;28;97064;-58
2022/09/09 20:13:25;;;;;;;;;;;;;;;15.53;60.08;96241.63;10379814;28;96804;-58
2022/09/09 20:18:31;;;;;;;;;;;;;;;15.43;60.75;96260.31;10401560;28;96808;-58
2022/09/09 20:23:36;;;;;;;;;;;;;;;15.37;61.41;96261.81;10420770;28;96914;-58
2022/09/09 20:28:39;;;;;;;;;;;;;;;15.39;61.43;96259.84;10371969;28;96791;-58
2022/09/09 20:33:42;;;;;;;;;;;;;;;15.44;61.46;96256.66;10336474;28;97112;-58
2022/09/09 20:38:47;;;;;;;;;;;;;;;15.42;61.93;96238.41;10351334;28;97058;-58
2022/09/09 20:43:51;;;;;;;;;;;;;;;15.37;61.81;96251.28;10412575;27;96675;-57
2022/09/09 20:48:55;;;;;;;;;;;;;;;15.27;62.13;96261.25;10377627;28;96821;-59
2022/09/09 20:54:06;;;;;;;;;;;;;;;14.95;63.31;96268.38;10373533;28;96856;-58
2022/09/09 20:59:10;;;;;;;;;;;;;;;14.93;63.01;96276.44;10403128;28;97192;-58
2022/09/09 21:04:14;;;;;;;;;;;;;;;14.98;63.03;96281.19;10404245;27;96771;-59
2022/09/09 21:09:19;;;;;;;;;;;;;;;14.97;62.89;96286.63;10413800;28;96827;-59
2022/09/09 21:14:22;;;;;;;;;;;;;;;14.92;63.26;96289.75;10387015;28;98168;-59
2022/09/09 21:19:24;;;;;;;;;;;;;;;14.81;63.10;96287.53;10373790;28;96824;-58
2022/09/09 21:24:28;;;;;;;;;;;;;;;14.65;64.02;96284.00;10402879;27;96851;-58
2022/09/09 21:29:31;;;;;;;;;;;;;;;14.56;64.41;96279.78;10371977;28;96695;-58
2022/09/09 21:34:34;;;;;;;;;;;;;;;14.52;63.91;96283.72;10366046;28;97484;-58
2022/09/09 21:39:38;;;;;;;;;;;;;;;14.46;64.29;96274.72;10376159;28;96895;-58
2022/09/09 21:44:40;;;;;;;;;;;;;;;14.50;64.89;96275.19;10371228;28;96836;-58
2022/09/09 21:49:43;;;;;;;;;;;;;;;14.53;64.71;96264.34;10356016;28;97186;-58
2022/09/09 21:54:47;;;;;;;;;;;;;;;14.58;64.75;96267.28;10418628;28;96908;-57
2022/09/09 21:59:51;;;;;;;;;;;;;;;14.39;64.82;96263.25;10416440;27;96808;-58
2022/09/09 22:04:54;;;;;;;;;;;;;;;14.24;66.19;96281.50;10383984;28;96802;-58
2022/09/09 22:09:58;;;;;;;;;;;;;;;14.23;65.95;96266.75;10370291;28;97041;-58
2022/09/09 22:15:00;;;;;;;;;;;;;;;14.29;66.04;96273.94;10340928;28;97052;-58
2022/09/09 22:20:04;;;;;;;;;;;;;;;14.23;66.01;96277.25;10415280;27;97141;-59
2022/09/09 22:25:08;;;;;;;;;;;;;;;14.22;66.95;96283.47;10375323;28;96962;-58
2022/09/09 22:30:12;;;;;;;;;;;;;;;14.21;66.96;96287.13;10392093;28;96697;-58
2022/09/09 22:35:15;;;;;;;;;;;;;;;14.19;66.68;96278.56;10416186;27;97075;-58
2022/09/09 22:40:19;;;;;;;;;;;;;;;14.19;67.21;96289.06;10408195;27;97188;-58
2022/09/09 22:45:21;;;;;;;;;;;;;;;14.29;67.00;96278.38;10374945;28;96751;-58
2022/09/09 22:50:24;;;;;;;;;;;;;;;14.40;66.93;96269.31;10374090;28;98092;-58
2022/09/09 22:55:28;;;;;;;;;;;;;;;14.44;67.34;96281.16;10374107;28;97012;-58
2022/09/09 23:00:31;;;;;;;;;;;;;;;14.29;67.85;96284.44;10372628;28;96606;-58
2022/09/09 23:05:35;;;;;;;;;;;;;;;14.21;67.98;96281.84;10375495;28;96698;-58
2022/09/09 23:10:41;;;;;;;;;;;;;;;14.29;67.67;96278.38;10371414;28;97362;-59
2022/09/09 23:15:45;;;;;;;;;;;;;;;14.39;67.13;96283.47;10340318;28;96880;-58
2022/09/09 23:20:56;;;;;;;;;;;;;;;14.28;68.04;96288.06;10339652;28;96722;-58
2022/09/09 23:26:03;;;;;;;;;;;;;;;14.18;68.36;96276.94;10338903;28;97529;-58
2022/09/09 23:31:08;;;;;;;;;;;;;;;14.16;68.82;96281.53;10369922;28;96854;-58
2022/09/09 23:36:12;;;;;;;;;;;;;;;14.16;68.49;96273.66;10381110;28;96760;-58
2022/09/09 23:41:19;;;;;;;;;;;;;;;14.14;69.38;96278.25;10379234;28;96688;-58
2022/09/09 23:46:23;;;;;;;;;;;;;;;14.15;69.04;96277.28;10380545;28;96797;-58
2022/09/09 23:51:29;;;;;;;;;;;;;;;14.26;68.63;96269.03;10378929;28;96906;-58
2022/09/09 23:56:35;;;;;;;;;;;;;;;14.25;68.47;96267.38;10379545;28;96746;-58
